Terminal Aerodrome Forecast
Issued by NWS Lake Charles, LA

Home | Current Version | Previous Version | Text Only | Print | Product List | Glossary On
Versions: 1 2 3 4 5 6 7 8 9 10 11 12 13 14
305
FTUS44 KLCH 221720
TAFAEX
TAF
KAEX 221720Z 2218/2318 19005KT P6SM VCTS SCT035 BKN050CB
      TEMPO 2218/2222 VRB15G25KT 2SM TSRA BKN025CB
     FM230300 VRB03KT P6SM SCT025 BKN250=

USA.gov is the U.S. government's official web portal to all federal, state and local government web resources and services.